createdAt,value
2022-11-21T00:01:38.459Z,59.90
2022-11-21T00:04:07.652Z,59.70
2022-11-21T00:06:37.051Z,59.87
2022-11-21T00:09:05.082Z,60.32
2022-11-21T00:11:33.094Z,59.91
2022-11-21T00:14:01.027Z,60.26
2022-11-21T00:16:29.234Z,59.88
2022-11-21T00:18:57.244Z,59.92
2022-11-21T00:21:25.200Z,59.59
2022-11-21T00:23:54.725Z,60.11
2022-11-21T00:26:22.677Z,59.64
2022-11-21T00:28:50.678Z,60.13
2022-11-21T00:31:21.687Z,60.19
2022-11-21T00:33:49.663Z,60.45
2022-11-21T00:36:17.660Z,60.47
2022-11-21T00:38:45.779Z,60.32
2022-11-21T00:41:15.196Z,60.05
2022-11-21T00:43:43.206Z,59.70
2022-11-21T00:46:12.719Z,59.66
2022-11-21T00:48:40.658Z,59.96
2022-11-21T00:51:08.537Z,59.60
2022-11-21T00:53:36.418Z,59.42
2022-11-21T00:56:04.325Z,59.66
2022-11-21T00:58:33.816Z,59.29
2022-11-21T01:01:06.404Z,59.77
2022-11-21T01:03:35.168Z,59.91
2022-11-21T01:06:04.071Z,59.61
2022-11-21T01:08:36.004Z,59.79
2022-11-21T01:11:05.354Z,59.21
2022-11-21T01:13:34.879Z,60.23
2022-11-21T01:16:06.627Z,59.59
2022-11-21T01:18:34.675Z,59.34
2022-11-21T01:21:02.937Z,59.23
2022-11-21T01:23:30.767Z,59.61
2022-11-21T01:26:02.700Z,59.84
2022-11-21T01:28:30.796Z,59.01
2022-11-21T01:31:06.183Z,60.15
2022-11-21T01:33:34.497Z,59.25
2022-11-21T01:36:08.688Z,59.67
2022-11-21T01:38:36.669Z,59.26
2022-11-21T01:41:04.779Z,59.20
2022-11-21T01:43:32.808Z,59.29
2022-11-21T01:46:01.246Z,59.77
2022-11-21T01:48:33.744Z,59.44
2022-11-21T01:51:04.351Z,59.23
2022-11-21T01:53:32.423Z,59.67
2022-11-21T01:56:00.536Z,59.77
2022-11-21T01:58:28.672Z,59.80
2022-11-21T02:00:56.680Z,59.72
2022-11-21T02:03:26.079Z,59.61
2022-11-21T02:05:57.449Z,59.16
2022-11-21T02:08:25.517Z,59.07
2022-11-21T02:10:58.247Z,59.19
2022-11-21T02:13:26.581Z,58.66
2022-11-21T02:15:54.601Z,59.21
2022-11-21T02:18:25.539Z,59.48
2022-11-21T02:21:00.174Z,59.41
2022-11-21T02:23:30.435Z,58.96
2022-11-21T02:25:59.905Z,59.33
2022-11-21T02:28:27.987Z,59.35
2022-11-21T02:30:56.036Z,58.87
2022-11-21T02:33:24.332Z,58.87
2022-11-21T02:36:01.653Z,59.26
2022-11-21T02:38:31.934Z,59.20
2022-11-21T02:41:04.954Z,58.77
2022-11-21T02:43:34.406Z,58.73
2022-11-21T02:46:02.248Z,59.15
2022-11-21T02:48:30.222Z,59.29
2022-11-21T02:50:58.122Z,59.25
2022-11-21T02:53:26.131Z,58.69
2022-11-21T02:55:54.043Z,58.20
2022-11-21T02:58:23.803Z,58.99
2022-11-21T03:00:51.850Z,58.64
2022-11-21T03:03:20.036Z,58.87
2022-11-21T03:05:48.349Z,59.02
2022-11-21T03:08:16.315Z,59.22
2022-11-21T03:10:46.078Z,59.26
2022-11-21T03:13:14.142Z,59.04
2022-11-21T03:15:43.517Z,58.55
2022-11-21T03:18:13.412Z,59.40
2022-11-21T03:20:41.438Z,59.11
2022-11-21T03:23:09.383Z,58.89
2022-11-21T03:25:37.258Z,59.14
2022-11-21T03:28:05.464Z,59.02
2022-11-21T03:30:33.508Z,59.11
2022-11-21T03:33:02.854Z,59.23
2022-11-21T03:35:30.779Z,58.92
2022-11-21T03:37:58.678Z,58.88
2022-11-21T03:40:26.575Z,58.64
2022-11-21T03:42:54.534Z,58.90
2022-11-21T03:45:22.494Z,58.99
2022-11-21T03:47:50.415Z,58.66
2022-11-21T03:50:21.060Z,58.74
2022-11-21T03:52:48.987Z,57.79
2022-11-21T03:55:16.977Z,58.41
2022-11-21T03:57:44.952Z,58.59
2022-11-21T04:00:14.425Z,58.42
2022-11-21T04:02:42.453Z,58.79
2022-11-21T04:05:10.782Z,58.67
2022-11-21T04:07:42.403Z,58.45
2022-11-21T04:10:11.295Z,58.18
2022-11-21T04:12:39.397Z,58.33
2022-11-21T04:15:13.152Z,58.70
2022-11-21T04:17:41.659Z,58.26
2022-11-21T04:20:10.623Z,58.53
2022-11-21T04:22:40.006Z,58.66
2022-11-21T04:25:09.105Z,58.45
2022-11-21T04:27:36.970Z,58.43
2022-11-21T04:30:05.597Z,58.20
2022-11-21T04:32:33.625Z,58.55
2022-11-21T04:35:01.616Z,58.04
2022-11-21T04:37:32.240Z,58.23
2022-11-21T04:40:01.865Z,58.63
2022-11-21T04:42:29.736Z,58.63
2022-11-21T04:44:57.768Z,58.08
2022-11-21T04:47:25.800Z,57.97
2022-11-21T04:49:56.723Z,57.96
2022-11-21T04:52:25.075Z,57.93
2022-11-21T04:54:53.183Z,58.00
2022-11-21T04:57:26.116Z,58.84
2022-11-21T04:59:54.098Z,58.06
2022-11-21T05:02:22.324Z,58.34
2022-11-21T05:04:50.479Z,58.28
2022-11-21T05:07:18.712Z,58.40
2022-11-21T05:09:46.910Z,58.28
2022-11-21T05:12:32.384Z,58.73
2022-11-21T05:15:01.775Z,57.53
2022-11-21T05:17:30.099Z,58.79
2022-11-21T05:19:58.086Z,58.25
2022-11-21T05:22:27.946Z,57.54
2022-11-21T05:24:55.792Z,57.58
2022-11-21T05:27:23.657Z,58.70
2022-11-21T05:29:51.360Z,57.89
2022-11-21T05:32:20.555Z,57.70
2022-11-21T05:34:48.494Z,58.13
2022-11-21T05:37:16.435Z,57.73
2022-11-21T05:39:44.279Z,58.21
2022-11-21T05:42:12.102Z,57.86
2022-11-21T05:44:44.702Z,58.07
2022-11-21T05:47:13.090Z,58.20
2022-11-21T05:49:42.425Z,58.21
2022-11-21T05:52:10.489Z,58.28
2022-11-21T05:54:42.385Z,58.39
2022-11-21T05:57:15.207Z,58.47
2022-11-21T05:59:49.177Z,58.08
2022-11-21T06:02:34.610Z,57.93
2022-11-21T06:05:05.312Z,58.11
2022-11-21T06:07:34.566Z,58.20
2022-11-21T06:10:02.581Z,57.82
2022-11-21T06:12:30.552Z,58.40
2022-11-21T06:15:01.598Z,58.08
2022-11-21T06:17:29.640Z,58.30
2022-11-21T06:19:57.518Z,58.18
2022-11-21T06:22:26.825Z,57.96
2022-11-21T06:24:54.615Z,58.36
2022-11-21T06:27:22.426Z,58.03
2022-11-21T06:29:50.360Z,58.18
2022-11-21T06:32:18.264Z,57.95
2022-11-21T06:34:46.069Z,58.01
2022-11-21T06:37:14.074Z,58.08
2022-11-21T06:39:43.171Z,58.04
2022-11-21T06:42:10.947Z,58.45
2022-11-21T06:44:38.682Z,57.78
2022-11-21T06:47:19.639Z,57.77
2022-11-21T06:49:47.420Z,58.03
2022-11-21T06:52:15.264Z,57.97
2022-11-21T06:54:44.652Z,58.45
2022-11-21T06:57:12.393Z,58.28
2022-11-21T06:59:40.170Z,58.47
2022-11-21T07:02:07.971Z,58.73
2022-11-21T07:04:35.615Z,57.75
2022-11-21T07:07:03.383Z,58.71
2022-11-21T07:09:45.791Z,58.78
2022-11-21T07:12:32.823Z,58.99
2022-11-21T07:15:00.652Z,59.03
2022-11-21T07:17:28.532Z,59.59
2022-11-21T07:19:56.265Z,58.83
2022-11-21T07:22:23.979Z,58.22
2022-11-21T07:24:51.669Z,59.58
2022-11-21T07:27:20.814Z,59.00
2022-11-21T07:29:48.591Z,59.01
2022-11-21T07:32:16.384Z,59.54
2022-11-21T07:34:44.093Z,59.86
2022-11-21T07:37:11.902Z,59.19
2022-11-21T07:39:39.711Z,59.55
2022-11-21T07:42:07.411Z,59.57
2022-11-21T07:44:36.753Z,59.92
2022-11-21T07:47:04.467Z,59.90
2022-11-21T07:49:32.356Z,59.41
2022-11-21T07:52:00.215Z,59.55
2022-11-21T07:54:28.028Z,59.86
2022-11-21T07:56:55.851Z,59.25
2022-11-21T07:59:23.541Z,59.79
2022-11-21T08:01:53.440Z,60.02
2022-11-21T08:04:21.223Z,59.58
2022-11-21T08:06:48.990Z,59.37
2022-11-21T08:09:16.776Z,59.47
2022-11-21T08:11:44.527Z,59.56
2022-11-21T08:14:12.311Z,60.02
2022-11-21T08:16:40.303Z,59.83
2022-11-21T08:19:09.496Z,59.79
2022-11-21T08:21:37.259Z,59.76
2022-11-21T08:24:07.662Z,59.87
2022-11-21T08:26:35.398Z,59.80
2022-11-21T08:29:03.196Z,60.23
2022-11-21T08:31:31.039Z,60.20
2022-11-21T08:33:58.976Z,59.66
2022-11-21T08:36:28.152Z,59.74
2022-11-21T08:38:55.907Z,59.75
2022-11-21T08:41:52.736Z,59.80
2022-11-21T08:44:20.478Z,60.08
2022-11-21T08:46:48.222Z,60.18
2022-11-21T08:49:16.192Z,60.16
2022-11-21T08:51:45.339Z,59.95
2022-11-21T08:54:13.366Z,59.94
2022-11-21T08:56:41.027Z,60.36
2022-11-21T08:59:08.804Z,59.91
2022-11-21T09:01:36.630Z,60.51
2022-11-21T09:04:04.520Z,60.39
2022-11-21T09:06:32.333Z,59.87
2022-11-21T09:09:01.425Z,59.64
2022-11-21T09:11:29.089Z,59.36
2022-11-21T09:14:14.539Z,59.30
2022-11-21T09:17:02.214Z,59.72
2022-11-21T09:19:30.534Z,59.33
2022-11-21T09:21:58.430Z,59.29
2022-11-21T09:24:27.582Z,59.50
2022-11-21T09:26:55.340Z,59.07
2022-11-21T09:29:23.136Z,59.49
2022-11-21T09:31:50.833Z,58.86
2022-11-21T09:34:18.556Z,59.00
2022-11-21T09:36:46.979Z,58.90
2022-11-21T09:39:14.747Z,58.10
2022-11-21T09:41:53.871Z,57.92
2022-11-21T09:44:36.069Z,58.31
2022-11-21T09:47:05.376Z,58.10
2022-11-21T09:49:33.584Z,57.57
2022-11-21T09:52:01.521Z,58.63
2022-11-21T09:54:31.572Z,58.01
2022-11-21T09:57:00.893Z,58.35
2022-11-21T09:59:33.489Z,58.23
2022-11-21T10:02:01.234Z,57.82
2022-11-21T10:04:29.376Z,59.07
2022-11-21T10:07:02.788Z,58.16
2022-11-21T10:09:37.523Z,58.28
2022-11-21T10:12:26.188Z,58.03
2022-11-21T10:14:59.987Z,58.06
2022-11-21T10:17:31.304Z,57.90
2022-11-21T10:20:19.289Z,57.43
2022-11-21T10:23:00.833Z,57.21
2022-11-21T10:25:30.703Z,57.24
2022-11-21T10:28:01.647Z,57.01
2022-11-21T10:30:29.738Z,56.80
2022-11-21T10:32:58.374Z,56.35
2022-11-21T10:35:27.014Z,56.09
2022-11-21T10:37:55.325Z,56.13
2022-11-21T10:40:29.487Z,55.19
2022-11-21T10:43:00.041Z,54.47
2022-11-21T10:45:26.805Z,54.77
2022-11-21T10:47:55.194Z,54.38
2022-11-21T10:50:44.035Z,54.70
2022-11-21T10:53:35.071Z,54.18
2022-11-21T10:56:03.938Z,53.72
2022-11-21T10:58:42.428Z,53.30
2022-11-21T11:01:20.852Z,53.06
2022-11-21T11:04:06.990Z,53.23
2022-11-21T11:06:36.501Z,53.00
2022-11-21T11:09:04.447Z,52.25
2022-11-21T11:11:32.174Z,52.23
2022-11-21T11:14:02.501Z,52.80
2022-11-21T11:16:30.492Z,52.78
2022-11-21T11:19:00.354Z,52.86
2022-11-21T11:21:29.093Z,52.73
2022-11-21T11:24:07.842Z,53.20
2022-11-21T11:26:35.558Z,52.90
2022-11-21T11:29:11.133Z,53.28
2022-11-21T11:31:43.104Z,53.58
2022-11-21T11:34:13.404Z,53.88
2022-11-21T11:36:47.166Z,53.63
2022-11-21T11:39:19.627Z,53.98
2022-11-21T11:42:17.184Z,54.10
2022-11-21T11:45:08.383Z,54.26
2022-11-21T11:47:39.305Z,54.19
2022-11-21T11:50:13.337Z,54.63
2022-11-21T11:52:51.293Z,54.66
2022-11-21T11:55:21.869Z,54.91
2022-11-21T11:57:50.789Z,54.36
2022-11-21T12:00:28.372Z,53.70
2022-11-21T12:03:02.363Z,54.13
2022-11-21T12:05:31.053Z,53.71
2022-11-21T12:08:40.183Z,53.75
2022-11-21T12:11:13.819Z,53.85
2022-11-21T12:13:41.553Z,53.40
2022-11-21T12:16:14.154Z,54.18
2022-11-21T12:18:47.880Z,53.57
2022-11-21T12:21:16.466Z,54.01
2022-11-21T12:23:49.981Z,53.96
2022-11-21T12:26:26.088Z,53.70
2022-11-21T12:29:01.384Z,53.74
2022-11-21T12:31:35.233Z,53.38
2022-11-21T12:34:05.522Z,53.61
2022-11-21T12:36:36.213Z,53.83
2022-11-21T12:39:15.162Z,53.70
2022-11-21T12:42:16.670Z,53.05
2022-11-21T12:44:53.699Z,52.91
2022-11-21T12:47:32.030Z,52.74
2022-11-21T12:50:22.626Z,52.23
2022-11-21T12:53:09.111Z,51.65
2022-11-21T12:55:38.007Z,51.25
2022-11-21T12:58:26.206Z,51.22
2022-11-21T13:01:04.401Z,51.70
2022-11-21T13:03:48.037Z,51.00
2022-11-21T13:06:17.934Z,51.46
2022-11-21T13:08:45.906Z,51.41
2022-11-21T13:11:36.264Z,51.49
2022-11-21T13:14:06.104Z,52.24
2022-11-21T13:19:39.090Z,53.04
2022-11-21T13:22:06.754Z,52.99
2022-11-21T13:24:57.317Z,52.79
2022-11-21T13:27:38.173Z,53.11
2022-11-21T13:30:25.434Z,53.05
2022-11-21T13:32:53.332Z,53.09
2022-11-21T13:36:00.434Z,52.90
2022-11-21T13:38:29.528Z,53.17
2022-11-21T13:41:15.011Z,53.39
2022-11-21T13:43:42.782Z,53.30
2022-11-21T13:46:10.586Z,53.21
2022-11-21T13:48:56.166Z,53.38
2022-11-21T13:51:53.336Z,53.37
2022-11-21T13:54:51.617Z,53.25
2022-11-21T13:57:26.863Z,53.51
2022-11-21T14:00:19.540Z,53.52
2022-11-21T14:03:07.145Z,53.47
2022-11-21T14:05:54.417Z,53.68
2022-11-21T14:08:23.100Z,53.57
2022-11-21T14:10:52.954Z,54.09
2022-11-21T14:13:27.903Z,53.95
2022-11-21T14:16:05.090Z,54.31
2022-11-21T14:18:32.922Z,53.79
2022-11-21T14:21:01.258Z,54.17
2022-11-21T14:23:29.962Z,53.76
2022-11-21T14:26:01.074Z,53.53
2022-11-21T14:28:29.712Z,53.65
2022-11-21T14:30:58.217Z,53.89
2022-11-21T14:33:29.910Z,53.79
2022-11-21T14:36:00.513Z,53.67
2022-11-21T14:38:28.615Z,53.80
2022-11-21T14:41:27.990Z,53.64
2022-11-21T14:44:18.861Z,53.50
2022-11-21T14:46:47.378Z,53.89
2022-11-21T14:49:29.300Z,53.99
2022-11-21T14:52:19.475Z,53.71
2022-11-21T14:55:13.517Z,53.21
2022-11-21T14:57:40.037Z,53.23
2022-11-21T15:00:09.887Z,52.85
2022-11-21T15:02:37.606Z,52.94
2022-11-21T15:05:06.541Z,53.23
2022-11-21T15:07:36.991Z,53.03
2022-11-21T15:12:56.929Z,53.26
2022-11-21T15:15:29.892Z,53.26
2022-11-21T15:18:24.311Z,53.74
2022-11-21T15:20:47.547Z,53.61
2022-11-21T15:23:29.327Z,53.21
2022-11-21T15:28:55.188Z,53.55
2022-11-21T15:31:26.262Z,53.74
2022-11-21T15:34:27.311Z,53.84
2022-11-21T15:36:47.090Z,53.84
2022-11-21T15:39:18.366Z,54.57
2022-11-21T15:41:49.297Z,54.22
2022-11-21T15:44:25.996Z,55.28
2022-11-21T15:46:53.908Z,55.27
2022-11-21T15:49:37.156Z,55.61
2022-11-21T15:52:10.382Z,54.95
2022-11-21T15:54:38.293Z,54.93
2022-11-21T15:57:06.098Z,55.49
2022-11-21T15:57:15.563Z,54.01
2022-11-21T15:59:35.215Z,55.03
2022-11-21T16:02:04.179Z,55.05
2022-11-21T16:04:36.273Z,55.61
2022-11-21T16:07:04.009Z,56.15
2022-11-21T16:09:31.891Z,56.03
2022-11-21T16:12:00.741Z,55.44
2022-11-21T16:14:28.384Z,55.29
2022-11-21T16:16:57.630Z,55.25
2022-11-21T16:19:26.025Z,55.60
2022-11-21T16:21:54.179Z,55.41
2022-11-21T16:24:22.058Z,54.63
2022-11-21T16:26:53.516Z,55.06
2022-11-21T16:29:21.473Z,54.90
2022-11-21T16:31:50.824Z,54.79
2022-11-21T16:34:22.961Z,55.30
2022-11-21T16:36:50.888Z,54.41
2022-11-21T16:39:18.860Z,54.80
2022-11-21T16:41:48.035Z,54.92
2022-11-21T16:44:16.689Z,55.08
2022-11-21T16:46:47.017Z,54.34
2022-11-21T16:49:15.187Z,54.53
2022-11-21T16:51:44.572Z,54.29
2022-11-21T16:54:13.134Z,54.26
2022-11-21T16:56:41.226Z,54.78
2022-11-21T16:59:09.147Z,55.13
2022-11-21T17:01:37.632Z,54.37
2022-11-21T17:04:05.831Z,54.62
2022-11-21T17:06:33.999Z,54.71
2022-11-21T17:09:03.757Z,54.52
2022-11-21T17:11:32.214Z,55.03
2022-11-21T17:14:00.959Z,54.77
2022-11-21T17:16:29.234Z,54.22
2022-11-21T17:18:57.390Z,54.71
2022-11-21T17:21:25.317Z,54.25
2022-11-21T17:23:53.083Z,54.39
2022-11-21T17:26:23.107Z,54.16
2022-11-21T17:28:54.467Z,54.03
2022-11-21T17:31:22.482Z,54.43
2022-11-21T17:33:51.841Z,54.42
2022-11-21T17:36:20.546Z,54.21
2022-11-21T17:38:48.879Z,53.94
2022-11-21T17:41:17.813Z,53.67
2022-11-21T17:43:47.410Z,53.77
2022-11-21T17:46:16.827Z,53.28
2022-11-21T17:48:54.585Z,53.62
2022-11-21T17:51:25.860Z,53.32
2022-11-21T17:53:53.938Z,52.88
2022-11-21T17:56:23.853Z,52.79
2022-11-21T17:58:53.439Z,53.08
2022-11-21T18:01:22.140Z,53.42
2022-11-21T18:03:54.327Z,52.91
2022-11-21T18:06:22.209Z,52.87
2022-11-21T18:08:50.136Z,52.27
2022-11-21T18:11:19.496Z,53.15
2022-11-21T18:13:54.863Z,53.30
2022-11-21T18:16:25.932Z,52.97
2022-11-21T18:18:53.783Z,52.75
2022-11-21T18:59:12.511Z,53.54
2022-11-21T19:01:40.955Z,53.19
2022-11-21T19:04:09.436Z,53.24
2022-11-21T19:06:37.868Z,53.33
2022-11-21T19:09:07.101Z,52.94
2022-11-21T19:11:35.554Z,53.34
2022-11-21T19:14:13.414Z,53.33
2022-11-21T19:16:42.105Z,53.36
2022-11-21T19:19:33.614Z,53.17
2022-11-21T19:22:01.306Z,54.35
2022-11-21T19:24:29.770Z,53.19
2022-11-21T19:26:58.297Z,53.40
2022-11-21T19:29:28.703Z,53.07
2022-11-21T19:31:57.325Z,53.47
2022-11-21T19:34:25.646Z,53.94
2022-11-21T19:36:54.073Z,52.86
2022-11-21T19:39:22.324Z,52.86
2022-11-21T19:41:50.273Z,53.42
2022-11-21T19:44:18.707Z,53.66
2022-11-21T19:46:51.403Z,53.54
2022-11-21T19:49:20.275Z,53.65
2022-11-21T19:51:48.485Z,53.79
2022-11-21T19:54:17.411Z,53.47
2022-11-21T19:56:45.461Z,53.48
2022-11-21T19:59:14.694Z,53.56
2022-11-21T20:01:44.866Z,54.06
2022-11-21T20:04:17.700Z,53.91
2022-11-21T20:06:46.409Z,53.76
2022-11-21T20:09:15.720Z,53.88
2022-11-21T20:11:44.670Z,54.06
2022-11-21T20:14:19.583Z,53.61
2022-11-21T20:16:50.088Z,54.15
2022-11-21T20:19:20.224Z,53.97
2022-11-21T20:21:48.237Z,53.53
2022-11-21T20:24:16.277Z,53.87
2022-11-21T20:26:44.165Z,54.02
2022-11-21T20:29:12.598Z,53.58
2022-11-21T20:31:40.570Z,53.30
2022-11-21T20:34:11.256Z,53.68
2022-11-21T20:36:40.818Z,54.52
2022-11-21T20:39:09.745Z,53.97
2022-11-21T20:41:37.857Z,53.92
2022-11-21T20:45:11.348Z,53.96
2022-11-21T20:46:56.012Z,53.67
2022-11-21T20:49:23.925Z,53.88
2022-11-21T20:54:42.126Z,53.39
2022-11-21T20:57:14.829Z,53.74
2022-11-21T20:59:43.719Z,53.61
2022-11-21T21:02:14.172Z,54.05
2022-11-21T21:04:43.496Z,53.02
2022-11-21T21:07:12.999Z,53.43
2022-11-21T21:09:40.966Z,53.99
2022-11-21T21:12:09.023Z,53.83
2022-11-21T21:14:37.151Z,54.04
2022-11-21T21:17:05.051Z,53.84
2022-11-21T21:19:33.171Z,53.83
2022-11-21T21:22:01.091Z,54.30
2022-11-21T21:24:30.305Z,53.53
2022-11-21T21:26:58.977Z,53.42
2022-11-21T21:29:27.032Z,53.64
2022-11-21T21:31:55.119Z,53.40
2022-11-21T21:34:23.315Z,53.43
2022-11-21T21:36:51.694Z,53.61
2022-11-21T21:39:19.742Z,53.02
2022-11-21T21:41:49.067Z,53.29
2022-11-21T21:44:17.232Z,53.62
2022-11-21T21:46:45.128Z,53.35
2022-11-21T21:49:13.437Z,53.06
2022-11-21T21:51:41.339Z,52.99
2022-11-21T21:54:16.302Z,53.02
2022-11-21T21:56:44.266Z,53.32
2022-11-21T21:59:13.603Z,52.84
2022-11-21T22:01:42.632Z,52.98
2022-11-21T22:04:11.564Z,53.32
2022-11-21T22:06:39.642Z,53.17
2022-11-21T22:09:08.177Z,52.86
2022-11-21T22:11:37.749Z,52.84
2022-11-21T22:14:09.763Z,53.13
2022-11-21T22:16:39.567Z,52.78
2022-11-21T22:19:07.593Z,52.80
2022-11-21T22:21:36.646Z,53.40
2022-11-21T22:26:55.132Z,52.81
2022-11-21T22:29:23.259Z,52.85
2022-11-21T22:31:52.616Z,53.57
2022-11-21T22:34:20.396Z,53.81
2022-11-21T22:36:48.416Z,53.67
2022-11-21T22:39:17.323Z,54.40
2022-11-21T22:41:45.113Z,54.82
2022-11-21T22:44:13.503Z,54.58
2022-11-21T22:46:41.239Z,55.29
2022-11-21T22:49:10.351Z,55.54
2022-11-21T22:51:38.163Z,56.00
2022-11-21T22:54:07.120Z,56.42
2022-11-21T22:56:34.853Z,56.70
2022-11-21T22:59:02.674Z,57.26
2022-11-21T23:01:30.492Z,57.66
2022-11-21T23:03:58.676Z,57.99
2022-11-21T23:06:28.239Z,57.58
2022-11-21T23:08:56.652Z,58.52
2022-11-21T23:11:26.077Z,57.91
2022-11-21T23:13:54.067Z,58.48
2022-11-21T23:16:22.321Z,58.53
2022-11-21T23:18:50.296Z,58.99
2022-11-21T23:21:18.171Z,59.14
2022-11-21T23:23:47.302Z,58.87
2022-11-21T23:26:15.085Z,59.18
2022-11-21T23:28:42.787Z,58.99
2022-11-21T23:31:10.829Z,59.47
2022-11-21T23:33:38.564Z,58.99
2022-11-21T23:36:06.535Z,58.89
2022-11-21T23:38:34.257Z,58.63
2022-11-21T23:41:03.299Z,59.02
2022-11-21T23:43:31.082Z,59.55
2022-11-21T23:45:58.824Z,59.12
2022-11-21T23:48:26.560Z,59.61
2022-11-21T23:50:54.356Z,59.40
2022-11-21T23:53:22.315Z,59.91
2022-11-21T23:55:50.557Z,59.07
2022-11-21T23:58:19.799Z,59.69
